createdAt,value
2019-04-16T00:00:14.168Z,69.80
2019-04-16T00:01:06.960Z,68.30
2019-04-16T00:02:03.336Z,67.40
2019-04-16T00:02:55.159Z,66.00
2019-04-16T00:03:38.060Z,64.70
2019-04-16T00:04:35.253Z,63.50
2019-04-16T00:05:27.505Z,62.60
2019-04-16T00:06:09.043Z,64.00
2019-04-16T00:07:06.200Z,65.70
2019-04-16T00:07:53.265Z,67.40
2019-04-16T00:08:41.531Z,68.80
2019-04-16T00:09:34.577Z,69.90
2019-04-16T00:10:29.058Z,70.90
2019-04-16T00:11:23.426Z,71.70
2019-04-16T00:12:19.800Z,73.20
2019-04-16T00:13:16.606Z,70.10
2019-04-16T00:14:09.130Z,68.90
2019-04-16T00:15:09.124Z,67.10
2019-04-16T00:15:49.764Z,66.10
2019-04-16T00:16:32.605Z,64.60
2019-04-16T00:17:15.939Z,63.60
2019-04-16T00:17:56.118Z,63.00
2019-04-16T00:18:36.825Z,63.00
2019-04-16T00:19:17.530Z,64.30
2019-04-16T00:19:58.607Z,66.00
2019-04-16T00:20:43.305Z,67.50
2019-04-16T00:21:41.148Z,68.80
2019-04-16T00:22:37.172Z,69.70
2019-04-16T00:23:23.791Z,70.80
2019-04-16T00:24:22.589Z,72.10
2019-04-16T00:25:04.062Z,72.70
2019-04-16T00:25:46.826Z,71.20
2019-04-16T00:26:27.843Z,69.80
2019-04-16T00:27:08.642Z,68.20
2019-04-16T00:27:49.383Z,67.00
2019-04-16T00:28:33.891Z,66.30
2019-04-16T00:29:16.047Z,65.50
2019-04-16T00:30:03.895Z,64.30
2019-04-16T00:30:41.788Z,63.50
2019-04-16T00:31:22.897Z,63.20
2019-04-16T00:32:26.126Z,64.20
2019-04-16T00:33:07.508Z,66.20
2019-04-16T00:33:49.017Z,68.00
2019-04-16T00:34:29.993Z,69.10
2019-04-16T00:35:15.459Z,70.20
2019-04-16T00:35:56.278Z,70.60
2019-04-16T00:36:37.571Z,71.70
2019-04-16T00:37:22.158Z,72.30
2019-04-16T00:38:04.573Z,73.20
2019-04-16T00:38:45.400Z,71.10
2019-04-16T00:39:26.589Z,69.70
2019-04-16T00:40:07.762Z,68.50
2019-04-16T00:41:06.096Z,67.70
2019-04-16T00:41:47.199Z,66.40
2019-04-16T00:42:33.616Z,64.70
2019-04-16T00:43:14.792Z,64.30
2019-04-16T00:43:57.135Z,63.10
2019-04-16T00:44:39.577Z,62.40
2019-04-16T00:45:21.532Z,61.90
2019-04-16T00:46:02.217Z,61.30
2019-04-16T00:46:45.024Z,60.60
2019-04-16T00:47:26.010Z,60.40
2019-04-16T00:48:08.800Z,61.30
2019-04-16T00:48:51.421Z,63.20
2019-04-16T00:49:37.901Z,64.30
2019-04-16T00:50:20.471Z,65.70
2019-04-16T00:51:02.369Z,66.80
2019-04-16T00:51:44.826Z,67.50
2019-04-16T00:52:25.897Z,67.20
2019-04-16T00:53:08.321Z,66.10
2019-04-16T00:53:50.606Z,65.00
2019-04-16T00:54:31.330Z,64.00
2019-04-16T00:55:14.526Z,63.50
2019-04-16T00:55:58.178Z,62.90
2019-04-16T00:56:39.118Z,62.40
2019-04-16T00:57:19.669Z,61.90
2019-04-16T00:58:00.410Z,61.50
2019-04-16T00:58:42.867Z,61.10
2019-04-16T00:59:25.078Z,60.70
2019-04-16T01:00:07.145Z,60.60
2019-04-16T01:00:50.086Z,60.10
2019-04-16T01:01:31.043Z,60.00
2019-04-16T01:02:11.863Z,59.80
2019-04-16T01:02:52.567Z,59.70
2019-04-16T01:03:34.903Z,59.50
2019-04-16T01:04:21.685Z,59.30
2019-04-16T01:05:02.705Z,59.10
2019-04-16T01:05:43.710Z,59.00
2019-04-16T01:06:24.526Z,58.70
2019-04-16T01:07:08.201Z,58.60
2019-04-16T01:07:50.638Z,58.80
2019-04-16T01:08:32.974Z,58.40
2019-04-16T01:09:18.655Z,58.20
2019-04-16T01:09:59.407Z,58.00
2019-04-16T01:10:40.309Z,57.80
2019-04-16T01:11:21.056Z,57.60
2019-04-16T01:12:01.788Z,57.50
2019-04-16T01:12:42.528Z,57.30
2019-04-16T01:13:25.952Z,57.10
2019-04-16T01:14:07.098Z,57.00
2019-04-16T01:14:48.450Z,56.90
2019-04-16T01:15:31.794Z,56.70
2019-04-16T01:16:13.087Z,56.60
2019-04-16T01:16:54.748Z,56.60
2019-04-16T01:17:36.198Z,56.50
2019-04-16T01:18:20.332Z,56.50
2019-04-16T01:19:01.292Z,56.00
2019-04-16T01:19:46.746Z,55.80
2019-04-16T01:20:29.146Z,55.40
2019-04-16T01:21:13.752Z,55.20
2019-04-16T01:21:55.325Z,55.10
2019-04-16T01:22:37.661Z,54.80
2019-04-16T01:23:20.408Z,54.60
2019-04-16T01:24:01.330Z,54.50
2019-04-16T01:24:44.962Z,54.40
2019-04-16T01:25:27.524Z,54.10
2019-04-16T01:26:08.673Z,53.90
2019-04-16T01:26:51.596Z,53.90
2019-04-16T01:27:35.725Z,53.80
2019-04-16T01:28:18.311Z,53.60
2019-04-16T01:29:12.945Z,53.50
2019-04-16T01:29:54.476Z,53.50
2019-04-16T01:30:52.886Z,53.50
2019-04-16T01:31:49.938Z,53.60
2019-04-16T01:32:48.217Z,53.50
2019-04-16T01:33:43.438Z,53.30
2019-04-16T01:34:48.316Z,53.20
2019-04-16T01:35:51.791Z,53.00
2019-04-16T01:36:54.373Z,52.90
2019-04-16T01:37:50.491Z,52.90
2019-04-16T01:38:39.703Z,53.00
2019-04-16T01:39:21.797Z,53.20
2019-04-16T01:40:02.995Z,53.20
2019-04-16T01:40:56.238Z,53.70
2019-04-16T01:41:39.551Z,54.00
2019-04-16T01:42:23.673Z,54.10
2019-04-16T01:43:04.177Z,54.50
2019-04-16T01:43:44.821Z,53.90
2019-04-16T01:44:28.646Z,55.20
2019-04-16T01:45:08.238Z,54.80
2019-04-16T01:45:49.176Z,55.10
2019-04-16T01:46:32.509Z,55.00
2019-04-16T01:47:12.287Z,54.80
2019-04-16T01:47:53.018Z,55.00
2019-04-16T01:48:33.699Z,55.30
2019-04-16T01:49:16.005Z,55.30
2019-04-16T01:50:01.354Z,55.60
2019-04-16T01:50:43.771Z,55.80
2019-04-16T01:51:24.527Z,56.30
2019-04-16T01:52:06.628Z,56.70
2019-04-16T01:52:49.824Z,56.80
2019-04-16T01:53:30.132Z,57.00
2019-04-16T01:54:12.047Z,57.10
2019-04-16T01:54:54.869Z,57.30
2019-04-16T01:55:42.291Z,57.40
2019-04-16T01:56:21.430Z,57.40
2019-04-16T01:57:04.478Z,57.50
2019-04-16T01:57:47.127Z,57.60
2019-04-16T01:58:28.120Z,57.60
2019-04-16T01:59:09.278Z,57.70
2019-04-16T01:59:50.249Z,57.90
2019-04-16T02:00:31.064Z,58.50
2019-04-16T02:01:12.400Z,58.10
2019-04-16T02:01:55.689Z,58.00
2019-04-16T02:02:36.440Z,58.30
2019-04-16T02:03:17.786Z,58.30
2019-04-16T02:04:01.054Z,58.50
2019-04-16T02:04:41.913Z,58.60
2019-04-16T02:05:23.166Z,58.70
2019-04-16T02:06:04.784Z,58.90
2019-04-16T02:06:47.209Z,58.90
2019-04-16T02:07:31.367Z,58.90
2019-04-16T02:08:16.737Z,59.60
2019-04-16T02:09:03.241Z,59.20
2019-04-16T02:09:47.999Z,59.20
2019-04-16T02:10:35.414Z,59.50
2019-04-16T02:11:22.083Z,59.70
2019-04-16T02:12:04.485Z,59.80
2019-04-16T02:12:47.180Z,60.00
2019-04-16T02:13:33.160Z,60.00
2019-04-16T02:14:22.114Z,60.80
2019-04-16T02:15:03.245Z,60.30
2019-04-16T02:15:44.389Z,60.50
2019-04-16T02:16:30.486Z,60.70
2019-04-16T02:17:13.229Z,60.80
2019-04-16T02:17:58.691Z,60.90
2019-04-16T02:18:42.166Z,61.10
2019-04-16T02:19:27.491Z,61.40
2019-04-16T02:20:11.355Z,61.40
2019-04-16T02:21:00.504Z,61.50
2019-04-16T02:21:45.047Z,61.70
2019-04-16T02:22:28.048Z,61.80
2019-04-16T02:23:13.764Z,62.00
2019-04-16T02:23:55.835Z,62.00
2019-04-16T02:24:39.161Z,62.00
2019-04-16T02:25:32.722Z,62.20
2019-04-16T02:26:27.886Z,62.10
2019-04-16T02:27:12.850Z,62.40
2019-04-16T02:27:58.802Z,62.60
2019-04-16T02:28:49.611Z,62.80
2019-04-16T02:29:38.908Z,62.80
2019-04-16T02:30:22.352Z,63.20
2019-04-16T02:31:15.342Z,63.60
2019-04-16T02:31:55.349Z,63.60
2019-04-16T02:32:44.058Z,63.80
2019-04-16T02:33:30.368Z,63.90
2019-04-16T02:34:16.353Z,63.90
2019-04-16T02:34:57.589Z,64.30
2019-04-16T02:35:44.170Z,64.80
2019-04-16T02:36:30.397Z,64.50
2019-04-16T02:37:37.611Z,64.50
2019-04-16T02:38:25.622Z,64.70
2019-04-16T02:39:10.282Z,64.90
2019-04-16T02:39:57.608Z,65.00
2019-04-16T02:40:51.457Z,65.20
2019-04-16T02:41:28.795Z,65.00
2019-04-16T02:42:10.958Z,65.50
2019-04-16T02:43:04.108Z,65.30
2019-04-16T02:43:48.682Z,65.60
2019-04-16T02:44:37.752Z,65.70
2019-04-16T02:45:23.712Z,65.90
2019-04-16T02:46:04.212Z,65.80
2019-04-16T02:46:50.901Z,66.20
2019-04-16T02:47:40.257Z,66.40
2019-04-16T02:48:17.501Z,66.50
2019-04-16T02:48:59.964Z,66.60
2019-04-16T02:49:40.842Z,66.50
2019-04-16T02:50:31.945Z,66.90
2019-04-16T02:51:41.642Z,67.10
2019-04-16T02:52:53.447Z,66.80
2019-04-16T02:53:46.557Z,67.70
2019-04-16T02:54:41.009Z,67.40
2019-04-16T02:55:49.629Z,67.60
2019-04-16T02:56:51.617Z,68.00
2019-04-16T02:57:34.148Z,68.50
2019-04-16T02:58:18.640Z,68.60
2019-04-16T02:59:10.568Z,68.80
2019-04-16T02:59:51.694Z,68.90
2019-04-16T03:00:59.104Z,68.90
2019-04-16T03:01:51.881Z,69.00
2019-04-16T03:02:53.621Z,69.10
2019-04-16T03:03:46.256Z,69.30
2019-04-16T03:04:30.150Z,69.10
2019-04-16T03:05:33.530Z,69.50
2019-04-16T03:06:14.529Z,69.60
2019-04-16T03:06:55.496Z,71.00
2019-04-16T03:07:36.366Z,70.70
2019-04-16T03:08:19.365Z,70.00
2019-04-16T03:09:01.824Z,69.80
2019-04-16T03:09:42.939Z,70.00
2019-04-16T03:10:23.620Z,70.40
2019-04-16T03:11:10.572Z,70.20
2019-04-16T03:11:53.405Z,70.30
2019-04-16T03:12:34.186Z,70.10
2019-04-16T03:13:15.661Z,70.60
2019-04-16T03:13:59.206Z,70.50
2019-04-16T03:14:38.995Z,70.60
2019-04-16T03:15:21.846Z,70.80
2019-04-16T03:16:26.861Z,70.60
2019-04-16T03:17:34.848Z,70.50
2019-04-16T03:18:16.779Z,70.90
2019-04-16T03:19:08.615Z,70.90
2019-04-16T03:19:51.278Z,71.20
2019-04-16T03:20:31.710Z,71.20
2019-04-16T03:21:14.415Z,71.50
2019-04-16T03:21:55.794Z,71.10
2019-04-16T03:22:37.067Z,71.90
2019-04-16T03:23:19.029Z,71.50
2019-04-16T03:23:59.734Z,71.60
2019-04-16T03:24:41.007Z,71.70
2019-04-16T03:25:21.797Z,71.70
2019-04-16T03:26:04.236Z,71.50
2019-04-16T03:26:50.361Z,72.40
2019-04-16T03:27:30.177Z,71.90
2019-04-16T03:28:11.575Z,71.70
2019-04-16T03:28:59.129Z,72.00
2019-04-16T03:29:40.473Z,72.60
2019-04-16T03:30:21.611Z,72.10
2019-04-16T03:31:08.802Z,72.00
2019-04-16T03:31:48.069Z,71.90
2019-04-16T03:32:35.507Z,72.20
2019-04-16T03:33:15.758Z,72.10
2019-04-16T03:33:57.022Z,72.10
2019-04-16T12:15:06.375Z,90.90
2019-04-16T12:16:03.299Z,90.40
2019-04-16T12:16:55.002Z,90.50
2019-04-16T12:17:47.762Z,91.10
2019-04-16T12:18:46.622Z,91.10
2019-04-16T12:19:44.944Z,91.20
2019-04-16T12:20:41.892Z,91.00
2019-04-16T12:21:42.977Z,90.90
2019-04-16T12:22:28.759Z,90.70
2019-04-16T12:23:26.420Z,90.60
2019-04-16T12:24:31.619Z,90.40
2019-04-16T12:25:31.317Z,90.30
2019-04-16T12:26:32.181Z,90.30
2019-04-16T12:27:36.089Z,90.30
2019-04-16T12:28:53.338Z,90.50
2019-04-16T12:29:44.946Z,90.60
2019-04-16T12:30:41.510Z,90.70
2019-04-16T12:31:39.843Z,90.60
2019-04-16T12:32:31.273Z,90.50
2019-04-16T12:33:23.648Z,90.40
2019-04-16T12:34:18.852Z,90.50
2019-04-16T12:35:34.433Z,90.50
2019-04-16T12:36:36.505Z,90.40
2019-04-16T12:37:37.418Z,90.30
2019-04-16T12:38:30.119Z,90.40
2019-04-16T12:39:28.788Z,90.50
2019-04-16T12:40:33.370Z,90.90
2019-04-16T12:41:30.503Z,91.00
2019-04-16T12:42:29.273Z,91.40
2019-04-16T12:43:40.024Z,91.70
2019-04-16T12:44:44.591Z,91.70
2019-04-16T12:45:31.920Z,92.00
2019-04-16T12:46:33.858Z,92.50
2019-04-16T12:47:25.637Z,92.60
2019-04-16T12:48:27.928Z,92.70
2019-04-16T12:49:31.007Z,93.00
2019-04-16T12:50:30.648Z,92.80
2019-04-16T12:51:23.561Z,92.70
2019-04-16T12:52:22.435Z,92.10
2019-04-16T12:53:10.235Z,91.80
2019-04-16T12:54:14.776Z,91.70
2019-04-16T12:55:13.480Z,91.90
2019-04-16T12:56:13.059Z,91.70
2019-04-16T12:57:29.889Z,91.50
2019-04-16T12:58:29.574Z,91.40
2019-04-16T12:59:16.715Z,91.50
2019-04-16T13:00:33.650Z,91.80
2019-04-16T13:01:29.090Z,92.10
2019-04-16T13:02:44.864Z,92.40
2019-04-16T13:03:46.558Z,92.30
2019-04-16T13:04:45.662Z,92.20
2019-04-16T13:05:50.894Z,92.40
2019-04-16T13:06:40.944Z,92.50
2019-04-16T13:07:51.944Z,92.90
2019-04-16T13:08:45.786Z,93.20
2019-04-16T13:09:43.820Z,93.40
2019-04-16T13:10:30.289Z,93.70
2019-04-16T13:11:31.926Z,93.90
2019-04-16T13:12:26.136Z,93.80
2019-04-16T13:13:40.560Z,93.90
2019-04-16T13:15:00.564Z,93.90
2019-04-16T13:15:51.404Z,93.90
2019-04-16T13:17:01.611Z,94.10
2019-04-16T13:17:58.632Z,94.20
2019-04-16T13:18:48.198Z,94.50
2019-04-16T13:19:59.297Z,94.60
2019-04-16T13:21:05.933Z,94.70
2019-04-16T13:22:00.937Z,94.90
2019-04-16T13:22:46.827Z,94.90
2019-04-16T13:24:02.225Z,94.90
2019-04-16T13:25:05.074Z,95.00
2019-04-16T13:26:00.603Z,94.70
2019-04-16T13:27:47.873Z,94.30
2019-04-16T13:28:31.657Z,94.50
2019-04-16T13:29:29.001Z,93.90
2019-04-16T13:30:05.605Z,93.80
2019-04-16T13:30:46.523Z,93.60
2019-04-16T13:31:27.505Z,93.40
2019-04-16T13:32:08.525Z,93.20
2019-04-16T13:32:51.217Z,93.10
2019-04-16T13:33:32.280Z,93.00
2019-04-16T13:34:18.241Z,93.00
2019-04-16T13:34:57.881Z,92.90
2019-04-16T13:35:38.581Z,92.90
2019-04-16T13:36:28.152Z,93.00
2019-04-16T13:37:10.125Z,92.90
2019-04-16T13:37:52.718Z,92.90
2019-04-16T13:38:37.579Z,92.90
2019-04-16T13:39:35.165Z,92.90
2019-04-16T13:40:41.429Z,92.90
2019-04-16T13:41:20.490Z,92.70
2019-04-16T13:42:04.436Z,92.60
2019-04-16T13:42:46.406Z,92.50
2019-04-16T13:43:38.954Z,92.40
2019-04-16T13:44:24.549Z,92.40
2019-04-16T13:45:27.931Z,92.30
2019-04-16T13:47:22.654Z,92.20
2019-04-16T13:48:27.264Z,92.60
2019-04-16T13:51:04.964Z,93.30
2019-04-16T13:51:57.393Z,93.60
2019-04-16T13:52:47.965Z,93.70
2019-04-16T13:54:04.073Z,93.60
2019-04-16T13:55:09.496Z,93.70
2019-04-16T13:56:17.359Z,93.60
2019-04-16T13:57:16.704Z,93.50
2019-04-16T13:58:29.746Z,93.70
2019-04-16T13:59:31.070Z,93.60
2019-04-16T14:00:33.648Z,93.30
2019-04-16T14:01:23.343Z,93.20
2019-04-16T14:02:17.421Z,93.10
2019-04-16T14:03:03.169Z,93.10
2019-04-16T14:03:46.703Z,93.10
2019-04-16T14:04:30.912Z,93.20
2019-04-16T14:05:11.530Z,93.00
2019-04-16T14:05:54.901Z,92.90
2019-04-16T14:06:37.011Z,93.20
2019-04-16T14:07:26.536Z,93.40
2019-04-16T14:08:13.382Z,93.00
2019-04-16T14:08:56.290Z,93.00
2019-04-16T14:09:37.074Z,93.20
2019-04-16T14:10:18.733Z,93.20
2019-04-16T14:11:01.163Z,93.60
2019-04-16T14:11:42.369Z,93.30
2019-04-16T14:12:27.982Z,93.30
2019-04-16T14:13:05.649Z,93.20
2019-04-16T14:13:50.359Z,93.00
2019-04-16T14:14:33.629Z,93.10
2019-04-16T14:15:14.775Z,93.00
2019-04-16T14:15:55.724Z,93.00
2019-04-16T14:16:36.359Z,93.20
2019-04-16T14:17:19.948Z,93.10
2019-04-16T14:18:00.829Z,93.20
2019-04-16T14:18:43.245Z,93.30
2019-04-16T14:19:24.106Z,93.30
2019-04-16T14:20:05.090Z,93.30
2019-04-16T14:20:46.022Z,93.30
2019-04-16T14:21:27.583Z,93.40
2019-04-16T14:22:09.752Z,93.40
2019-04-16T14:22:53.355Z,93.50
2019-04-16T14:23:33.124Z,93.40
2019-04-16T14:24:14.290Z,93.40
2019-04-16T14:24:55.280Z,93.40
2019-04-16T14:25:37.998Z,93.40
2019-04-16T14:26:20.697Z,93.40
2019-04-16T14:27:04.698Z,93.30
2019-04-16T14:27:45.857Z,93.40
2019-04-16T14:28:28.566Z,93.30
2019-04-16T14:29:10.218Z,93.30
2019-04-16T14:29:53.532Z,93.30
2019-04-16T14:30:39.510Z,93.30
2019-04-16T14:31:19.758Z,93.30
2019-04-16T14:32:00.711Z,93.30
2019-04-16T14:32:41.562Z,93.20
2019-04-16T14:33:43.979Z,93.20
2019-04-16T14:34:31.315Z,93.10
2019-04-16T14:35:32.267Z,93.10
2019-04-16T14:36:01.135Z,92.80
2019-04-16T14:36:43.628Z,93.00
2019-04-16T14:37:24.562Z,93.10
2019-04-16T14:38:05.813Z,93.20
2019-04-16T14:38:55.380Z,93.20
2019-04-16T14:39:44.114Z,93.10
2019-04-16T14:40:28.878Z,93.10
2019-04-16T14:41:15.877Z,92.90
2019-04-16T14:41:56.667Z,92.90
2019-04-16T14:42:41.761Z,93.00
2019-04-16T14:43:29.162Z,93.00
2019-04-16T14:44:12.575Z,93.00
2019-04-16T14:45:07.494Z,93.00
2019-04-16T14:45:59.116Z,93.00
2019-04-16T14:46:43.155Z,93.00
2019-04-16T14:47:25.646Z,93.00
2019-04-16T14:48:10.203Z,93.10
2019-04-16T14:48:50.962Z,93.00
2019-04-16T14:49:33.742Z,93.00
2019-04-16T14:50:14.836Z,93.00
2019-04-16T14:50:55.636Z,92.90
2019-04-16T14:51:36.810Z,92.90
2019-04-16T14:52:18.790Z,92.90
2019-04-16T14:53:01.461Z,92.90
2019-04-16T14:54:00.579Z,92.90
2019-04-16T14:54:48.622Z,92.90
2019-04-16T14:55:41.931Z,92.90
2019-04-16T14:56:38.513Z,93.00
2019-04-16T14:57:19.565Z,93.00
2019-04-16T14:58:10.431Z,92.90
2019-04-16T14:59:12.053Z,92.90
2019-04-16T15:00:16.076Z,92.80
2019-04-16T15:01:32.469Z,92.90
2019-04-16T15:02:35.394Z,93.00
2019-04-16T15:03:43.017Z,93.20
2019-04-16T15:04:40.146Z,93.10
2019-04-16T15:05:44.695Z,93.20
2019-04-16T15:06:43.658Z,93.20
2019-04-16T15:07:52.652Z,93.10
2019-04-16T15:08:41.376Z,93.20
2019-04-16T15:09:38.403Z,93.10
2019-04-16T15:10:43.038Z,93.10
2019-04-16T15:11:39.961Z,93.20
2019-04-16T15:12:36.614Z,93.20
2019-04-16T15:13:27.489Z,93.20
2019-04-16T15:14:14.794Z,93.10
2019-04-16T15:15:11.757Z,93.10
2019-04-16T15:16:10.959Z,93.00
2019-04-16T15:16:57.990Z,93.00
2019-04-16T15:17:49.975Z,93.00
2019-04-16T15:18:51.653Z,93.00
2019-04-16T15:19:51.953Z,93.10
2019-04-16T15:20:53.381Z,93.10
2019-04-16T15:21:52.003Z,93.30
2019-04-16T15:22:39.219Z,93.30
2019-04-16T15:23:43.528Z,93.20
2019-04-16T15:24:38.956Z,93.20
2019-04-16T15:25:27.278Z,93.20
2019-04-16T15:26:25.629Z,93.20
2019-04-16T15:27:24.157Z,93.20
2019-04-16T15:28:24.246Z,93.20
2019-04-16T15:29:23.430Z,93.20
2019-04-16T15:30:28.384Z,93.30
2019-04-16T15:31:17.332Z,93.30
2019-04-16T15:32:14.761Z,93.20
2019-04-16T15:33:28.188Z,93.20
2019-04-16T15:34:21.841Z,93.20
2019-04-16T15:35:03.055Z,93.10
2019-04-16T15:35:53.836Z,93.00
2019-04-16T15:36:49.844Z,93.10
2019-04-16T15:37:37.577Z,93.00
2019-04-16T15:38:36.439Z,93.00
2019-04-16T15:39:36.699Z,93.10
2019-04-16T15:40:26.637Z,92.90
2019-04-16T15:41:24.648Z,92.90
2019-04-16T15:42:25.906Z,93.00
2019-04-16T15:43:22.250Z,93.10
2019-04-16T15:44:22.619Z,93.20
2019-04-16T15:45:17.585Z,93.30
2019-04-16T15:46:26.767Z,93.50
2019-04-16T15:47:45.954Z,93.50
2019-04-16T15:48:54.487Z,93.40
2019-04-16T15:49:55.667Z,93.40
2019-04-16T15:50:57.875Z,93.60
2019-04-16T15:51:58.522Z,93.60
2019-04-16T15:53:11.348Z,93.60
2019-04-16T15:54:13.609Z,93.60
2019-04-16T15:55:25.451Z,93.60
2019-04-16T15:56:24.215Z,93.50
2019-04-16T15:57:22.828Z,93.40
2019-04-16T15:58:25.326Z,93.50
2019-04-16T15:59:09.813Z,93.50
2019-04-16T16:00:00.150Z,93.50
2019-04-16T16:00:47.612Z,93.40
2019-04-16T16:02:04.546Z,93.50
2019-04-16T16:03:01.522Z,93.70
2019-04-16T16:04:08.652Z,93.50
2019-04-16T16:05:09.676Z,93.30
2019-04-16T16:05:58.030Z,93.10
2019-04-16T16:06:52.177Z,93.10
2019-04-16T16:07:43.481Z,93.10
2019-04-16T16:08:38.437Z,93.10
2019-04-16T16:09:33.780Z,93.10
2019-04-16T16:10:24.941Z,93.00
2019-04-16T16:11:08.688Z,93.10
2019-04-16T16:11:58.360Z,93.10
2019-04-16T16:12:39.023Z,93.00
2019-04-16T16:13:19.603Z,92.70
2019-04-16T16:14:01.487Z,92.40
2019-04-16T16:14:42.292Z,90.30
2019-04-16T16:15:23.189Z,90.40
2019-04-16T16:16:03.973Z,89.80
2019-04-16T16:16:47.698Z,88.20
2019-04-16T16:17:31.359Z,85.60
2019-04-16T16:18:12.257Z,83.40
2019-04-16T16:18:53.044Z,82.60
2019-04-16T16:19:38.992Z,80.70
2019-04-16T16:20:19.688Z,80.30
2019-04-16T16:21:00.325Z,76.80
2019-04-16T16:21:41.918Z,75.70
2019-04-16T16:22:22.546Z,74.10
2019-04-16T16:23:07.695Z,72.20
2019-04-16T16:23:48.417Z,72.20
2019-04-16T16:24:35.786Z,70.60
2019-04-16T16:25:14.794Z,69.50
2019-04-16T16:25:58.749Z,68.60
2019-04-16T16:26:41.208Z,67.60
2019-04-16T16:27:21.946Z,66.50
2019-04-16T16:28:02.660Z,65.60
2019-04-16T16:28:43.238Z,64.90
2019-04-16T16:29:24.127Z,64.20
2019-04-16T16:30:06.290Z,63.80
2019-04-16T16:30:49.385Z,63.20
2019-04-16T16:31:35.113Z,62.60
2019-04-16T16:32:13.424Z,61.20
2019-04-16T16:32:54.670Z,61.20
2019-04-16T16:33:35.361Z,60.60
2019-04-16T16:34:16.194Z,60.10
2019-04-16T16:34:59.943Z,59.70
2019-04-16T16:35:40.578Z,59.30
2019-04-16T16:36:21.521Z,58.40
2019-04-16T16:37:05.408Z,58.30
2019-04-16T16:37:46.102Z,58.10
2019-04-16T16:38:26.672Z,57.80
2019-04-16T16:39:08.037Z,57.50
2019-04-16T16:39:49.867Z,57.60
2019-04-16T16:40:33.746Z,57.30
2019-04-16T16:41:14.722Z,57.10
2019-04-16T16:41:59.523Z,56.50
2019-04-16T16:42:40.389Z,56.10
2019-04-16T16:43:22.252Z,55.90
2019-04-16T16:44:04.549Z,55.80
2019-04-16T16:44:45.763Z,55.50
2019-04-16T16:45:42.070Z,55.70
2019-04-16T16:46:55.998Z,55.80
2019-04-16T16:47:51.326Z,54.80
2019-04-16T16:48:32.033Z,55.50
2019-04-16T16:49:12.877Z,54.60
2019-04-16T16:49:53.565Z,54.60
2019-04-16T16:50:35.863Z,54.20
2019-04-16T16:51:16.793Z,54.00
2019-04-16T16:52:26.071Z,53.80
2019-04-16T16:53:16.577Z,53.90
2019-04-16T16:54:05.748Z,53.70
2019-04-16T16:54:47.881Z,53.30
2019-04-16T16:55:35.225Z,53.00
2019-04-16T16:56:24.222Z,53.20
2019-04-16T16:57:18.307Z,53.00
2019-04-16T16:58:26.675Z,52.90
2019-04-16T16:59:18.176Z,52.60
2019-04-16T17:00:23.774Z,52.50
2019-04-16T17:01:20.375Z,52.50
2019-04-16T17:02:15.012Z,52.10
2019-04-16T17:03:11.781Z,52.10
2019-04-16T17:04:00.609Z,52.10
2019-04-16T17:04:45.004Z,51.80
2019-04-16T17:05:30.541Z,51.70
2019-04-16T17:06:12.537Z,51.60
2019-04-16T17:06:53.321Z,51.40
2019-04-16T17:07:34.513Z,52.00
2019-04-16T17:08:15.240Z,51.50
2019-04-16T17:08:56.234Z,51.30
2019-04-16T17:09:37.990Z,51.00
2019-04-16T17:10:18.605Z,51.30
2019-04-16T17:11:14.977Z,51.30
2019-04-16T17:11:45.323Z,51.40
2019-04-16T17:12:27.045Z,51.20
2019-04-16T17:13:07.652Z,51.10
2019-04-16T17:13:50.276Z,51.10
2019-04-16T17:14:36.498Z,51.30
2019-04-16T17:15:17.029Z,51.60
2019-04-16T17:15:57.897Z,52.60
2019-04-16T17:16:42.312Z,53.70
2019-04-16T17:17:22.894Z,54.60
2019-04-16T17:18:03.604Z,55.40
2019-04-16T17:18:45.725Z,56.10
2019-04-16T17:19:26.463Z,56.80
2019-04-16T17:20:07.403Z,56.70
2019-04-16T17:20:50.236Z,56.70
2019-04-16T17:21:30.107Z,56.40
2019-04-16T17:22:14.700Z,56.00
2019-04-16T17:22:56.483Z,55.80
2019-04-16T17:23:37.271Z,55.30
2019-04-16T17:24:20.081Z,54.90
2019-04-16T17:25:02.486Z,54.60
2019-04-16T17:25:43.171Z,54.40
2019-04-16T17:26:23.919Z,53.90
2019-04-16T17:27:04.643Z,53.90
2019-04-16T17:27:51.731Z,53.70
2019-04-16T17:28:27.212Z,53.70
2019-04-16T17:29:08.049Z,53.80
2019-04-16T17:29:50.894Z,54.70
2019-04-16T17:30:33.774Z,55.50
2019-04-16T17:31:14.399Z,56.40
2019-04-16T17:31:55.672Z,57.10
2019-04-16T17:32:37.496Z,57.80
2019-04-16T17:33:18.469Z,58.40
2019-04-16T17:34:00.316Z,59.00
2019-04-16T17:34:41.001Z,58.80
2019-04-16T17:35:21.767Z,58.60
2019-04-16T17:36:02.852Z,58.10
2019-04-16T17:36:43.603Z,57.70
2019-04-16T17:37:27.809Z,57.20
2019-04-16T17:38:06.548Z,56.80
2019-04-16T17:38:48.674Z,56.40
2019-04-16T17:39:51.746Z,55.70
2019-04-16T17:40:58.709Z,55.80
2019-04-16T17:41:42.757Z,55.40
2019-04-16T17:42:31.088Z,54.90
2019-04-16T17:43:26.159Z,54.30
2019-04-16T17:44:27.420Z,54.20
2019-04-16T17:45:27.116Z,53.70
2019-04-16T17:46:16.775Z,54.10
2019-04-16T17:47:31.753Z,53.80
2019-04-16T17:48:31.328Z,54.40
2019-04-16T17:49:20.818Z,55.20
2019-04-16T17:50:08.421Z,56.50
2019-04-16T17:51:13.014Z,57.40
2019-04-16T17:52:07.674Z,58.20
2019-04-16T17:52:58.351Z,59.20
2019-04-16T17:53:56.257Z,60.00
2019-04-16T17:54:43.537Z,60.00
2019-04-16T17:55:40.378Z,59.50
2019-04-16T17:56:37.089Z,58.90
2019-04-16T17:57:38.437Z,58.10
2019-04-16T17:58:27.330Z,57.60
2019-04-16T17:59:11.528Z,57.00
2019-04-16T18:00:08.827Z,56.30
2019-04-16T18:01:10.116Z,56.10
2019-04-16T18:02:11.655Z,56.10
2019-04-16T18:03:09.662Z,56.90
2019-04-16T18:03:58.086Z,58.30
2019-04-16T18:05:05.486Z,59.30
2019-04-16T18:05:54.671Z,60.00
2019-04-16T18:06:58.412Z,60.80
2019-04-16T18:07:55.306Z,60.40
2019-04-16T18:09:08.319Z,59.60
2019-04-16T18:10:04.435Z,58.90
2019-04-16T18:10:54.670Z,58.10
2019-04-16T18:11:48.032Z,57.50
2019-04-16T18:12:50.703Z,57.60
2019-04-16T18:13:48.120Z,56.40
2019-04-16T18:14:44.608Z,56.00
2019-04-16T18:15:36.775Z,56.50
2019-04-16T18:16:31.817Z,57.70
2019-04-16T18:17:27.608Z,58.60
2019-04-16T18:18:15.527Z,59.50
2019-04-16T18:19:06.620Z,60.30
2019-04-16T18:20:02.994Z,61.90
2019-04-16T18:21:01.665Z,62.00
2019-04-16T18:22:15.858Z,61.50
2019-04-16T18:23:22.446Z,60.40
2019-04-16T18:24:25.565Z,59.40
2019-04-16T18:25:21.184Z,58.60
2019-04-16T18:26:18.173Z,58.10
2019-04-16T18:27:15.722Z,57.40
2019-04-16T18:28:06.753Z,56.70
2019-04-16T18:29:03.720Z,56.80
2019-04-16T18:29:56.348Z,57.20
2019-04-16T18:30:53.373Z,58.30
2019-04-16T18:32:00.705Z,59.20
2019-04-16T18:33:09.613Z,60.00
2019-04-16T18:34:00.485Z,61.40
2019-04-16T18:34:48.839Z,62.50
2019-04-16T18:35:54.682Z,62.40
2019-04-16T18:36:42.189Z,61.50
2019-04-16T18:37:48.591Z,60.20
2019-04-16T18:38:47.523Z,59.50
2019-04-16T18:39:39.758Z,58.60
2019-04-16T18:40:53.557Z,58.40
2019-04-16T18:41:41.660Z,57.70
2019-04-16T18:42:27.361Z,57.20
2019-04-16T18:43:30.408Z,57.40
2019-04-16T18:44:34.147Z,58.20
2019-04-16T18:45:29.480Z,59.20
2019-04-16T18:46:43.006Z,60.40
2019-04-16T18:47:42.603Z,62.20
2019-04-16T18:48:27.679Z,62.80
2019-04-16T18:49:17.431Z,63.30
2019-04-16T18:50:00.739Z,62.70
2019-04-16T18:50:41.613Z,61.60
2019-04-16T18:51:24.122Z,61.30
2019-04-16T18:52:06.381Z,60.30
2019-04-16T18:52:47.266Z,59.70
2019-04-16T18:53:29.664Z,59.20
2019-04-16T18:54:10.487Z,58.80
2019-04-16T18:54:51.230Z,58.40
2019-04-16T18:55:31.864Z,58.00
2019-04-16T18:56:12.933Z,57.80
2019-04-16T18:56:56.039Z,58.30
2019-04-16T18:57:38.443Z,58.90
2019-04-16T18:58:20.477Z,59.60
2019-04-16T18:59:01.147Z,60.60
2019-04-16T18:59:43.000Z,61.40
2019-04-16T19:00:46.664Z,62.40
2019-04-16T19:01:32.383Z,63.10
2019-04-16T19:02:14.500Z,64.20
2019-04-16T19:02:57.354Z,64.60
2019-04-16T19:03:38.005Z,64.30
2019-04-16T19:04:19.440Z,63.50
2019-04-16T19:05:01.211Z,62.60
2019-04-16T19:05:41.880Z,61.70
2019-04-16T19:06:23.861Z,61.00
2019-04-16T19:07:04.777Z,60.30
2019-04-16T19:07:48.280Z,59.80
2019-04-16T19:08:41.016Z,59.30
2019-04-16T19:09:12.758Z,58.90
2019-04-16T19:09:53.592Z,58.40
2019-04-16T19:10:35.700Z,58.70
2019-04-16T19:11:20.338Z,59.30
2019-04-16T19:12:01.387Z,60.80
2019-04-16T19:12:42.251Z,60.90
2019-04-16T19:13:23.538Z,61.80
2019-04-16T19:14:04.368Z,62.60